sensor_id;sensor_type;location;lat;lon;timestamp;P1;durP1;ratioP1;P2;durP2;ratioP2
20456;SDS011;10387;51.102;6.848;2023-06-26T00:00:20;9.73;;;8.83;;
20456;SDS011;10387;51.102;6.848;2023-06-26T00:02:46;9.20;;;8.30;;
20456;SDS011;10387;51.102;6.848;2023-06-26T00:05:12;10.10;;;9.20;;
20456;SDS011;10387;51.102;6.848;2023-06-26T00:07:39;9.43;;;8.53;;
20456;SDS011;10387;51.102;6.848;2023-06-26T00:10:05;9.50;;;8.60;;
20456;SDS011;10387;51.102;6.848;2023-06-26T00:12:31;9.67;;;8.77;;
20456;SDS011;10387;51.102;6.848;2023-06-26T00:14:58;10.20;;;9.23;;
20456;SDS011;10387;51.102;6.848;2023-06-26T00:17:24;10.40;;;9.50;;
20456;SDS011;10387;51.102;6.848;2023-06-26T00:19:50;10.43;;;9.50;;
20456;SDS011;10387;51.102;6.848;2023-06-26T00:22:16;9.93;;;9.07;;
20456;SDS011;10387;51.102;6.848;2023-06-26T00:24:42;10.57;;;9.47;;
20456;SDS011;10387;51.102;6.848;2023-06-26T00:27:10;10.50;;;9.40;;
20456;SDS011;10387;51.102;6.848;2023-06-26T00:29:36;10.33;;;9.47;;
20456;SDS011;10387;51.102;6.848;2023-06-26T00:32:03;10.27;;;9.03;;
20456;SDS011;10387;51.102;6.848;2023-06-26T00:34:30;10.73;;;8.93;;
20456;SDS011;10387;51.102;6.848;2023-06-26T00:36:56;10.90;;;9.90;;
20456;SDS011;10387;51.102;6.848;2023-06-26T00:39:22;10.90;;;9.90;;
20456;SDS011;10387;51.102;6.848;2023-06-26T00:41:51;10.33;;;9.43;;
20456;SDS011;10387;51.102;6.848;2023-06-26T00:44:19;10.80;;;9.60;;
20456;SDS011;10387;51.102;6.848;2023-06-26T00:46:45;10.87;;;9.87;;
20456;SDS011;10387;51.102;6.848;2023-06-26T00:49:11;11.30;;;10.20;;
20456;SDS011;10387;51.102;6.848;2023-06-26T00:51:38;10.63;;;9.63;;
20456;SDS011;10387;51.102;6.848;2023-06-26T00:54:04;10.10;;;9.10;;
20456;SDS011;10387;51.102;6.848;2023-06-26T00:56:31;10.00;;;9.07;;
20456;SDS011;10387;51.102;6.848;2023-06-26T00:58:57;11.00;;;10.00;;
20456;SDS011;10387;51.102;6.848;2023-06-26T01:01:25;10.57;;;9.57;;
20456;SDS011;10387;51.102;6.848;2023-06-26T01:03:51;11.93;;;10.83;;
20456;SDS011;10387;51.102;6.848;2023-06-26T01:06:19;10.97;;;9.87;;
20456;SDS011;10387;51.102;6.848;2023-06-26T01:08:45;11.00;;;10.00;;
20456;SDS011;10387;51.102;6.848;2023-06-26T01:11:12;10.60;;;9.70;;
20456;SDS011;10387;51.102;6.848;2023-06-26T01:13:39;11.30;;;10.20;;
20456;SDS011;10387;51.102;6.848;2023-06-26T01:16:07;11.27;;;10.17;;
20456;SDS011;10387;51.102;6.848;2023-06-26T01:18:33;11.23;;;10.13;;
20456;SDS011;10387;51.102;6.848;2023-06-26T01:20:59;10.83;;;9.80;;
20456;SDS011;10387;51.102;6.848;2023-06-26T01:28:27;12.07;;;10.57;;
20456;SDS011;10387;51.102;6.848;2023-06-26T01:30:55;11.93;;;10.83;;
20456;SDS011;10387;51.102;6.848;2023-06-26T01:33:22;11.30;;;10.30;;
20456;SDS011;10387;51.102;6.848;2023-06-26T01:35:50;11.57;;;10.50;;
20456;SDS011;10387;51.102;6.848;2023-06-26T01:38:17;10.90;;;9.83;;
20456;SDS011;10387;51.102;6.848;2023-06-26T01:40:45;11.40;;;10.33;;
20456;SDS011;10387;51.102;6.848;2023-06-26T01:43:15;11.70;;;10.60;;
20456;SDS011;10387;51.102;6.848;2023-06-26T01:45:41;11.63;;;10.50;;
20456;SDS011;10387;51.102;6.848;2023-06-26T01:48:08;13.07;;;10.20;;
20456;SDS011;10387;51.102;6.848;2023-06-26T01:50:35;11.97;;;10.87;;
20456;SDS011;10387;51.102;6.848;2023-06-26T01:53:07;11.67;;;10.47;;
20456;SDS011;10387;51.102;6.848;2023-06-26T01:55:36;11.00;;;9.90;;
20456;SDS011;10387;51.102;6.848;2023-06-26T01:58:06;11.77;;;10.30;;
20456;SDS011;10387;51.102;6.848;2023-06-26T02:00:32;10.27;;;9.33;;
20456;SDS011;10387;51.102;6.848;2023-06-26T02:02:58;10.77;;;9.77;;
20456;SDS011;10387;51.102;6.848;2023-06-26T02:05:25;11.70;;;10.47;;
20456;SDS011;10387;51.102;6.848;2023-06-26T02:07:51;10.80;;;9.80;;
20456;SDS011;10387;51.102;6.848;2023-06-26T02:10:17;10.87;;;9.87;;
20456;SDS011;10387;51.102;6.848;2023-06-26T02:12:44;10.43;;;9.53;;
20456;SDS011;10387;51.102;6.848;2023-06-26T02:15:12;10.30;;;9.30;;
20456;SDS011;10387;51.102;6.848;2023-06-26T02:17:38;10.33;;;9.40;;
20456;SDS011;10387;51.102;6.848;2023-06-26T02:20:04;10.83;;;9.73;;
20456;SDS011;10387;51.102;6.848;2023-06-26T02:22:31;9.70;;;8.80;;
20456;SDS011;10387;51.102;6.848;2023-06-26T02:24:57;9.67;;;8.53;;
20456;SDS011;10387;51.102;6.848;2023-06-26T02:27:24;10.17;;;9.17;;
20456;SDS011;10387;51.102;6.848;2023-06-26T02:29:52;9.63;;;8.73;;
20456;SDS011;10387;51.102;6.848;2023-06-26T02:32:18;11.07;;;9.97;;
20456;SDS011;10387;51.102;6.848;2023-06-26T02:34:44;10.33;;;8.73;;
20456;SDS011;10387;51.102;6.848;2023-06-26T02:37:10;10.53;;;9.07;;
20456;SDS011;10387;51.102;6.848;2023-06-26T02:39:37;10.03;;;9.00;;
20456;SDS011;10387;51.102;6.848;2023-06-26T02:42:05;9.70;;;8.70;;
20456;SDS011;10387;51.102;6.848;2023-06-26T02:44:31;9.67;;;8.60;;
20456;SDS011;10387;51.102;6.848;2023-06-26T02:46:58;9.33;;;8.30;;
20456;SDS011;10387;51.102;6.848;2023-06-26T02:49:24;10.10;;;9.20;;
20456;SDS011;10387;51.102;6.848;2023-06-26T02:51:50;10.00;;;9.00;;
20456;SDS011;10387;51.102;6.848;2023-06-26T02:54:24;10.10;;;9.20;;
20456;SDS011;10387;51.102;6.848;2023-06-26T02:56:53;9.90;;;9.00;;
20456;SDS011;10387;51.102;6.848;2023-06-26T02:59:24;9.87;;;8.90;;
20456;SDS011;10387;51.102;6.848;2023-06-26T03:01:51;10.07;;;9.17;;
20456;SDS011;10387;51.102;6.848;2023-06-26T03:04:17;10.03;;;9.03;;
20456;SDS011;10387;51.102;6.848;2023-06-26T03:06:44;9.30;;;8.17;;
20456;SDS011;10387;51.102;6.848;2023-06-26T03:09:10;9.40;;;8.50;;
20456;SDS011;10387;51.102;6.848;2023-06-26T03:11:36;8.30;;;7.57;;
20456;SDS011;10387;51.102;6.848;2023-06-26T03:14:02;8.57;;;7.77;;
20456;SDS011;10387;51.102;6.848;2023-06-26T03:16:29;10.00;;;8.20;;
20456;SDS011;10387;51.102;6.848;2023-06-26T03:18:55;10.77;;;8.80;;
20456;SDS011;10387;51.102;6.848;2023-06-26T03:21:21;9.43;;;8.43;;
20456;SDS011;10387;51.102;6.848;2023-06-26T03:23:47;9.10;;;8.17;;
20456;SDS011;10387;51.102;6.848;2023-06-26T03:26:13;9.77;;;8.73;;
20456;SDS011;10387;51.102;6.848;2023-06-26T03:28:40;9.13;;;8.33;;
20456;SDS011;10387;51.102;6.848;2023-06-26T03:31:08;9.70;;;8.80;;
20456;SDS011;10387;51.102;6.848;2023-06-26T03:33:34;9.63;;;8.67;;
20456;SDS011;10387;51.102;6.848;2023-06-26T03:36:01;9.47;;;8.57;;
20456;SDS011;10387;51.102;6.848;2023-06-26T03:38:27;9.70;;;8.70;;
20456;SDS011;10387;51.102;6.848;2023-06-26T03:40:55;9.90;;;8.90;;
20456;SDS011;10387;51.102;6.848;2023-06-26T03:43:22;9.70;;;8.70;;
20456;SDS011;10387;51.102;6.848;2023-06-26T03:46:03;9.80;;;8.90;;
20456;SDS011;10387;51.102;6.848;2023-06-26T03:48:29;9.20;;;8.30;;
20456;SDS011;10387;51.102;6.848;2023-06-26T03:50:55;8.90;;;8.00;;
20456;SDS011;10387;51.102;6.848;2023-06-26T03:53:21;9.10;;;8.20;;
20456;SDS011;10387;51.102;6.848;2023-06-26T03:55:50;9.70;;;8.70;;
20456;SDS011;10387;51.102;6.848;2023-06-26T03:58:16;8.47;;;7.67;;
20456;SDS011;10387;51.102;6.848;2023-06-26T04:00:42;9.10;;;8.20;;
20456;SDS011;10387;51.102;6.848;2023-06-26T04:03:08;9.17;;;8.10;;
20456;SDS011;10387;51.102;6.848;2023-06-26T04:05:35;8.67;;;7.70;;
20456;SDS011;10387;51.102;6.848;2023-06-26T04:08:01;9.20;;;7.87;;
20456;SDS011;10387;51.102;6.848;2023-06-26T04:10:27;8.23;;;7.43;;
20456;SDS011;10387;51.102;6.848;2023-06-26T04:12:53;8.20;;;7.40;;
20456;SDS011;10387;51.102;6.848;2023-06-26T04:15:20;8.93;;;8.03;;
20456;SDS011;10387;51.102;6.848;2023-06-26T04:17:45;9.33;;;7.60;;
20456;SDS011;10387;51.102;6.848;2023-06-26T04:20:12;8.03;;;7.23;;
20456;SDS011;10387;51.102;6.848;2023-06-26T04:22:38;8.30;;;7.50;;
20456;SDS011;10387;51.102;6.848;2023-06-26T04:25:04;8.33;;;7.43;;
20456;SDS011;10387;51.102;6.848;2023-06-26T04:27:30;9.30;;;8.07;;
20456;SDS011;10387;51.102;6.848;2023-06-26T04:29:56;8.80;;;7.90;;
20456;SDS011;10387;51.102;6.848;2023-06-26T04:32:22;9.47;;;7.57;;
20456;SDS011;10387;51.102;6.848;2023-06-26T04:34:48;8.60;;;7.63;;
20456;SDS011;10387;51.102;6.848;2023-06-26T04:37:14;11.10;;;8.13;;
20456;SDS011;10387;51.102;6.848;2023-06-26T04:39:42;8.20;;;7.23;;
20456;SDS011;10387;51.102;6.848;2023-06-26T04:42:08;9.63;;;8.23;;
20456;SDS011;10387;51.102;6.848;2023-06-26T04:44:37;9.37;;;8.07;;
20456;SDS011;10387;51.102;6.848;2023-06-26T04:47:03;10.63;;;8.20;;
20456;SDS011;10387;51.102;6.848;2023-06-26T04:49:29;9.20;;;8.30;;
20456;SDS011;10387;51.102;6.848;2023-06-26T04:51:55;8.30;;;7.43;;
20456;SDS011;10387;51.102;6.848;2023-06-26T04:54:21;8.93;;;8.03;;
20456;SDS011;10387;51.102;6.848;2023-06-26T04:56:48;10.07;;;8.23;;
20456;SDS011;10387;51.102;6.848;2023-06-26T04:59:14;8.33;;;7.50;;
20456;SDS011;10387;51.102;6.848;2023-06-26T05:01:40;9.13;;;8.23;;
20456;SDS011;10387;51.102;6.848;2023-06-26T05:04:06;8.60;;;7.70;;
20456;SDS011;10387;51.102;6.848;2023-06-26T05:06:33;8.87;;;7.83;;
20456;SDS011;10387;51.102;6.848;2023-06-26T05:08:59;8.80;;;6.93;;
20456;SDS011;10387;51.102;6.848;2023-06-26T05:11:25;8.40;;;7.43;;
20456;SDS011;10387;51.102;6.848;2023-06-26T05:13:52;8.63;;;7.43;;
20456;SDS011;10387;51.102;6.848;2023-06-26T05:16:17;9.03;;;7.93;;
20456;SDS011;10387;51.102;6.848;2023-06-26T05:18:44;8.60;;;7.70;;
20456;SDS011;10387;51.102;6.848;2023-06-26T05:21:10;10.73;;;7.03;;
20456;SDS011;10387;51.102;6.848;2023-06-26T05:23:36;8.40;;;7.60;;
20456;SDS011;10387;51.102;6.848;2023-06-26T05:26:02;9.03;;;7.00;;
20456;SDS011;10387;51.102;6.848;2023-06-26T05:28:28;10.33;;;8.10;;
20456;SDS011;10387;51.102;6.848;2023-06-26T05:30:56;7.70;;;6.90;;
20456;SDS011;10387;51.102;6.848;2023-06-26T05:33:23;7.47;;;6.77;;
20456;SDS011;10387;51.102;6.848;2023-06-26T05:35:51;7.97;;;6.47;;
20456;SDS011;10387;51.102;6.848;2023-06-26T05:38:18;7.40;;;6.67;;
20456;SDS011;10387;51.102;6.848;2023-06-26T05:40:44;7.00;;;6.30;;
20456;SDS011;10387;51.102;6.848;2023-06-26T05:43:10;8.27;;;6.63;;
20456;SDS011;10387;51.102;6.848;2023-06-26T05:45:36;9.07;;;6.80;;
20456;SDS011;10387;51.102;6.848;2023-06-26T05:48:02;7.33;;;6.10;;
20456;SDS011;10387;51.102;6.848;2023-06-26T05:50:28;8.13;;;6.70;;
20456;SDS011;10387;51.102;6.848;2023-06-26T05:52:55;7.00;;;5.60;;
20456;SDS011;10387;51.102;6.848;2023-06-26T05:55:21;8.93;;;6.53;;
20456;SDS011;10387;51.102;6.848;2023-06-26T05:57:47;7.73;;;6.07;;
20456;SDS011;10387;51.102;6.848;2023-06-26T06:00:13;6.53;;;5.33;;
20456;SDS011;10387;51.102;6.848;2023-06-26T06:02:41;7.53;;;6.13;;
20456;SDS011;10387;51.102;6.848;2023-06-26T06:05:07;7.70;;;5.70;;
20456;SDS011;10387;51.102;6.848;2023-06-26T06:07:34;7.30;;;5.60;;
20456;SDS011;10387;51.102;6.848;2023-06-26T06:10:00;7.90;;;5.80;;
20456;SDS011;10387;51.102;6.848;2023-06-26T06:12:27;10.63;;;6.77;;
20456;SDS011;10387;51.102;6.848;2023-06-26T06:14:53;8.90;;;6.00;;
20456;SDS011;10387;51.102;6.848;2023-06-26T06:17:20;7.40;;;5.43;;
20456;SDS011;10387;51.102;6.848;2023-06-26T06:19:46;8.30;;;5.90;;
20456;SDS011;10387;51.102;6.848;2023-06-26T06:22:14;9.80;;;6.10;;
20456;SDS011;10387;51.102;6.848;2023-06-26T06:24:41;8.37;;;6.20;;
20456;SDS011;10387;51.102;6.848;2023-06-26T06:27:07;9.33;;;5.90;;
20456;SDS011;10387;51.102;6.848;2023-06-26T06:29:33;9.63;;;5.47;;
20456;SDS011;10387;51.102;6.848;2023-06-26T06:31:59;9.73;;;6.20;;
20456;SDS011;10387;51.102;6.848;2023-06-26T06:34:25;7.27;;;6.13;;
20456;SDS011;10387;51.102;6.848;2023-06-26T06:36:51;7.17;;;6.23;;
20456;SDS011;10387;51.102;6.848;2023-06-26T06:39:17;9.87;;;6.00;;
20456;SDS011;10387;51.102;6.848;2023-06-26T06:41:43;9.03;;;6.47;;
20456;SDS011;10387;51.102;6.848;2023-06-26T06:44:10;8.20;;;6.47;;
20456;SDS011;10387;51.102;6.848;2023-06-26T06:46:36;10.77;;;6.60;;
20456;SDS011;10387;51.102;6.848;2023-06-26T06:49:02;8.97;;;6.33;;
20456;SDS011;10387;51.102;6.848;2023-06-26T06:51:29;11.23;;;6.97;;
20456;SDS011;10387;51.102;6.848;2023-06-26T06:53:55;8.80;;;5.87;;
20456;SDS011;10387;51.102;6.848;2023-06-26T06:56:21;8.57;;;6.33;;
20456;SDS011;10387;51.102;6.848;2023-06-26T06:58:47;8.47;;;6.27;;
20456;SDS011;10387;51.102;6.848;2023-06-26T07:03:43;9.63;;;6.20;;
20456;SDS011;10387;51.102;6.848;2023-06-26T07:06:09;8.30;;;6.33;;
20456;SDS011;10387;51.102;6.848;2023-06-26T07:08:35;8.07;;;5.30;;
20456;SDS011;10387;51.102;6.848;2023-06-26T07:11:01;10.73;;;6.70;;
20456;SDS011;10387;51.102;6.848;2023-06-26T07:13:28;9.00;;;5.90;;
20456;SDS011;10387;51.102;6.848;2023-06-26T07:15:54;8.40;;;5.90;;
20456;SDS011;10387;51.102;6.848;2023-06-26T07:18:20;7.40;;;6.40;;
20456;SDS011;10387;51.102;6.848;2023-06-26T07:20:46;8.23;;;6.37;;
20456;SDS011;10387;51.102;6.848;2023-06-26T07:23:13;9.93;;;7.00;;
20456;SDS011;10387;51.102;6.848;2023-06-26T07:25:39;12.80;;;7.17;;
20456;SDS011;10387;51.102;6.848;2023-06-26T07:28:11;10.73;;;6.13;;
20456;SDS011;10387;51.102;6.848;2023-06-26T07:30:38;7.70;;;6.23;;
20456;SDS011;10387;51.102;6.848;2023-06-26T07:33:04;13.30;;;6.93;;
20456;SDS011;10387;51.102;6.848;2023-06-26T07:35:30;7.70;;;6.03;;
20456;SDS011;10387;51.102;6.848;2023-06-26T07:37:56;10.23;;;6.63;;
20456;SDS011;10387;51.102;6.848;2023-06-26T07:40:23;13.57;;;6.97;;
20456;SDS011;10387;51.102;6.848;2023-06-26T07:42:49;12.03;;;6.70;;
20456;SDS011;10387;51.102;6.848;2023-06-26T07:45:15;11.20;;;6.50;;
20456;SDS011;10387;51.102;6.848;2023-06-26T07:47:41;8.20;;;6.20;;
20456;SDS011;10387;51.102;6.848;2023-06-26T07:50:08;8.97;;;6.60;;
20456;SDS011;10387;51.102;6.848;2023-06-26T07:52:34;9.50;;;6.53;;
20456;SDS011;10387;51.102;6.848;2023-06-26T07:55:03;9.07;;;5.73;;
20456;SDS011;10387;51.102;6.848;2023-06-26T07:57:29;8.07;;;5.33;;
20456;SDS011;10387;51.102;6.848;2023-06-26T07:59:57;9.83;;;6.03;;
20456;SDS011;10387;51.102;6.848;2023-06-26T08:02:23;12.07;;;6.13;;
20456;SDS011;10387;51.102;6.848;2023-06-26T08:04:49;8.93;;;6.10;;
20456;SDS011;10387;51.102;6.848;2023-06-26T08:07:15;9.37;;;6.07;;
20456;SDS011;10387;51.102;6.848;2023-06-26T08:09:41;10.40;;;6.20;;
20456;SDS011;10387;51.102;6.848;2023-06-26T08:12:07;10.40;;;6.03;;
20456;SDS011;10387;51.102;6.848;2023-06-26T08:14:33;9.23;;;6.00;;
20456;SDS011;10387;51.102;6.848;2023-06-26T08:16:59;8.20;;;5.83;;
20456;SDS011;10387;51.102;6.848;2023-06-26T08:19:25;10.67;;;6.13;;
20456;SDS011;10387;51.102;6.848;2023-06-26T08:21:51;10.60;;;6.77;;
20456;SDS011;10387;51.102;6.848;2023-06-26T08:24:17;8.47;;;6.30;;
20456;SDS011;10387;51.102;6.848;2023-06-26T08:26:47;9.00;;;6.50;;
20456;SDS011;10387;51.102;6.848;2023-06-26T08:29:13;12.57;;;7.13;;
20456;SDS011;10387;51.102;6.848;2023-06-26T08:31:40;7.60;;;6.17;;
20456;SDS011;10387;51.102;6.848;2023-06-26T08:34:07;9.27;;;6.70;;
20456;SDS011;10387;51.102;6.848;2023-06-26T08:36:33;9.97;;;6.47;;
20456;SDS011;10387;51.102;6.848;2023-06-26T08:39:00;7.87;;;6.43;;
20456;SDS011;10387;51.102;6.848;2023-06-26T08:41:26;10.97;;;6.60;;
20456;SDS011;10387;51.102;6.848;2023-06-26T08:43:52;10.40;;;6.60;;
20456;SDS011;10387;51.102;6.848;2023-06-26T08:46:18;8.20;;;6.30;;
20456;SDS011;10387;51.102;6.848;2023-06-26T08:48:49;9.10;;;6.67;;
20456;SDS011;10387;51.102;6.848;2023-06-26T08:51:17;10.23;;;6.90;;
20456;SDS011;10387;51.102;6.848;2023-06-26T08:53:49;12.83;;;7.23;;
20456;SDS011;10387;51.102;6.848;2023-06-26T08:56:17;8.97;;;6.93;;
20456;SDS011;10387;51.102;6.848;2023-06-26T08:58:44;8.17;;;6.43;;
20456;SDS011;10387;51.102;6.848;2023-06-26T09:01:10;8.10;;;6.80;;
20456;SDS011;10387;51.102;6.848;2023-06-26T09:03:36;14.07;;;8.10;;
20456;SDS011;10387;51.102;6.848;2023-06-26T09:06:02;10.20;;;8.00;;
20456;SDS011;10387;51.102;6.848;2023-06-26T09:08:28;8.50;;;7.60;;
20456;SDS011;10387;51.102;6.848;2023-06-26T09:10:54;13.93;;;8.10;;
20456;SDS011;10387;51.102;6.848;2023-06-26T09:13:21;8.10;;;7.30;;
20456;SDS011;10387;51.102;6.848;2023-06-26T09:15:47;12.27;;;7.57;;
20456;SDS011;10387;51.102;6.848;2023-06-26T09:18:13;10.30;;;8.00;;
20456;SDS011;10387;51.102;6.848;2023-06-26T09:20:43;12.03;;;8.63;;
20456;SDS011;10387;51.102;6.848;2023-06-26T09:23:09;8.67;;;7.87;;
20456;SDS011;10387;51.102;6.848;2023-06-26T09:25:37;8.83;;;7.73;;
20456;SDS011;10387;51.102;6.848;2023-06-26T09:28:04;9.73;;;8.10;;
20456;SDS011;10387;51.102;6.848;2023-06-26T09:30:31;10.13;;;7.20;;
20456;SDS011;10387;51.102;6.848;2023-06-26T09:33:02;8.00;;;7.20;;
20456;SDS011;10387;51.102;6.848;2023-06-26T09:35:38;8.67;;;7.30;;
20456;SDS011;10387;51.102;6.848;2023-06-26T09:38:04;8.33;;;7.27;;
20456;SDS011;10387;51.102;6.848;2023-06-26T09:40:30;11.27;;;7.43;;
20456;SDS011;10387;51.102;6.848;2023-06-26T09:43:02;9.93;;;6.87;;
20456;SDS011;10387;51.102;6.848;2023-06-26T09:45:28;9.80;;;8.50;;
20456;SDS011;10387;51.102;6.848;2023-06-26T09:47:54;9.50;;;7.60;;
20456;SDS011;10387;51.102;6.848;2023-06-26T09:50:21;8.00;;;7.20;;
20456;SDS011;10387;51.102;6.848;2023-06-26T09:52:49;9.27;;;6.33;;
20456;SDS011;10387;51.102;6.848;2023-06-26T09:55:16;10.97;;;6.67;;
20456;SDS011;10387;51.102;6.848;2023-06-26T09:57:46;10.80;;;6.67;;
20456;SDS011;10387;51.102;6.848;2023-06-26T10:00:13;7.60;;;6.57;;
20456;SDS011;10387;51.102;6.848;2023-06-26T10:02:40;12.00;;;7.73;;
20456;SDS011;10387;51.102;6.848;2023-06-26T10:05:06;8.57;;;6.87;;
20456;SDS011;10387;51.102;6.848;2023-06-26T10:07:46;6.70;;;5.87;;
20456;SDS011;10387;51.102;6.848;2023-06-26T10:10:13;8.20;;;6.13;;
20456;SDS011;10387;51.102;6.848;2023-06-26T10:12:39;10.50;;;6.30;;
20456;SDS011;10387;51.102;6.848;2023-06-26T10:15:06;7.23;;;6.20;;
20456;SDS011;10387;51.102;6.848;2023-06-26T10:17:34;9.13;;;6.10;;
20456;SDS011;10387;51.102;6.848;2023-06-26T10:20:01;6.80;;;5.53;;
20456;SDS011;10387;51.102;6.848;2023-06-26T10:22:29;8.83;;;5.77;;
20456;SDS011;10387;51.102;6.848;2023-06-26T10:24:56;7.80;;;5.80;;
20456;SDS011;10387;51.102;6.848;2023-06-26T10:27:25;8.10;;;5.50;;
20456;SDS011;10387;51.102;6.848;2023-06-26T10:29:56;8.20;;;5.47;;
20456;SDS011;10387;51.102;6.848;2023-06-26T10:32:23;8.07;;;5.33;;
20456;SDS011;10387;51.102;6.848;2023-06-26T10:34:50;5.63;;;5.07;;
20456;SDS011;10387;51.102;6.848;2023-06-26T10:37:17;7.13;;;5.27;;
20456;SDS011;10387;51.102;6.848;2023-06-26T10:39:49;7.13;;;5.40;;
20456;SDS011;10387;51.102;6.848;2023-06-26T10:42:16;10.47;;;5.43;;
20456;SDS011;10387;51.102;6.848;2023-06-26T10:44:44;6.63;;;5.83;;
20456;SDS011;10387;51.102;6.848;2023-06-26T10:47:10;6.10;;;5.50;;
20456;SDS011;10387;51.102;6.848;2023-06-26T10:49:37;7.77;;;5.00;;
20456;SDS011;10387;51.102;6.848;2023-06-26T10:52:07;6.17;;;4.47;;
20456;SDS011;10387;51.102;6.848;2023-06-26T10:54:33;4.27;;;3.87;;
20456;SDS011;10387;51.102;6.848;2023-06-26T10:56:59;6.57;;;4.43;;
20456;SDS011;10387;51.102;6.848;2023-06-26T10:59:28;5.67;;;4.63;;
20456;SDS011;10387;51.102;6.848;2023-06-26T11:01:54;5.37;;;4.03;;
20456;SDS011;10387;51.102;6.848;2023-06-26T11:07:19;4.97;;;3.77;;
20456;SDS011;10387;51.102;6.848;2023-06-26T11:10:08;5.97;;;3.70;;
20456;SDS011;10387;51.102;6.848;2023-06-26T11:12:34;3.73;;;3.40;;
20456;SDS011;10387;51.102;6.848;2023-06-26T11:15:09;6.53;;;3.60;;
20456;SDS011;10387;51.102;6.848;2023-06-26T11:17:36;4.57;;;3.33;;
20456;SDS011;10387;51.102;6.848;2023-06-26T11:20:04;5.00;;;3.60;;
20456;SDS011;10387;51.102;6.848;2023-06-26T11:22:31;3.80;;;3.20;;
20456;SDS011;10387;51.102;6.848;2023-06-26T11:25:00;5.57;;;3.27;;
20456;SDS011;10387;51.102;6.848;2023-06-26T11:27:31;4.28;;;2.88;;
20456;SDS011;10387;51.102;6.848;2023-06-26T11:29:57;4.03;;;3.17;;
20456;SDS011;10387;51.102;6.848;2023-06-26T11:32:25;5.03;;;2.80;;
20456;SDS011;10387;51.102;6.848;2023-06-26T11:34:52;3.13;;;2.70;;
20456;SDS011;10387;51.102;6.848;2023-06-26T11:37:19;6.17;;;2.80;;
20456;SDS011;10387;51.102;6.848;2023-06-26T11:39:45;3.03;;;2.30;;
20456;SDS011;10387;51.102;6.848;2023-06-26T11:42:11;3.80;;;2.43;;
20456;SDS011;10387;51.102;6.848;2023-06-26T11:44:43;4.17;;;2.40;;
20456;SDS011;10387;51.102;6.848;2023-06-26T11:47:16;2.67;;;2.40;;
20456;SDS011;10387;51.102;6.848;2023-06-26T11:49:46;4.87;;;2.30;;
20456;SDS011;10387;51.102;6.848;2023-06-26T11:52:14;2.80;;;2.30;;
20456;SDS011;10387;51.102;6.848;2023-06-26T11:54:41;6.83;;;2.10;;
20456;SDS011;10387;51.102;6.848;2023-06-26T11:57:08;2.37;;;2.17;;
20456;SDS011;10387;51.102;6.848;2023-06-26T11:59:34;3.40;;;2.60;;
20456;SDS011;10387;51.102;6.848;2023-06-26T12:02:04;2.83;;;2.20;;
20456;SDS011;10387;51.102;6.848;2023-06-26T12:04:30;2.57;;;2.13;;
20456;SDS011;10387;51.102;6.848;2023-06-26T12:06:57;3.63;;;2.30;;
20456;SDS011;10387;51.102;6.848;2023-06-26T12:09:23;4.53;;;2.73;;
20456;SDS011;10387;51.102;6.848;2023-06-26T12:11:53;4.53;;;2.47;;
20456;SDS011;10387;51.102;6.848;2023-06-26T12:14:22;3.27;;;2.47;;
20456;SDS011;10387;51.102;6.848;2023-06-26T12:16:53;4.57;;;2.43;;
20456;SDS011;10387;51.102;6.848;2023-06-26T12:19:26;4.87;;;2.77;;
20456;SDS011;10387;51.102;6.848;2023-06-26T12:21:52;3.47;;;2.97;;
20456;SDS011;10387;51.102;6.848;2023-06-26T12:24:20;3.27;;;2.57;;
20456;SDS011;10387;51.102;6.848;2023-06-26T12:26:49;6.10;;;2.97;;
20456;SDS011;10387;51.102;6.848;2023-06-26T12:29:17;3.45;;;2.80;;
20456;SDS011;10387;51.102;6.848;2023-06-26T12:31:44;6.60;;;2.65;;
20456;SDS011;10387;51.102;6.848;2023-06-26T12:34:11;2.43;;;2.20;;
20456;SDS011;10387;51.102;6.848;2023-06-26T12:36:41;3.93;;;2.07;;
20456;SDS011;10387;51.102;6.848;2023-06-26T12:39:09;3.50;;;2.00;;
20456;SDS011;10387;51.102;6.848;2023-06-26T12:41:43;3.07;;;2.10;;
20456;SDS011;10387;51.102;6.848;2023-06-26T12:44:43;3.73;;;1.73;;
20456;SDS011;10387;51.102;6.848;2023-06-26T12:47:02;3.73;;;1.80;;
20456;SDS011;10387;51.102;6.848;2023-06-26T12:49:32;4.30;;;1.67;;
20456;SDS011;10387;51.102;6.848;2023-06-26T12:51:59;1.70;;;1.60;;
20456;SDS011;10387;51.102;6.848;2023-06-26T12:54:26;4.07;;;1.67;;
20456;SDS011;10387;51.102;6.848;2023-06-26T12:56:52;4.23;;;1.70;;
20456;SDS011;10387;51.102;6.848;2023-06-26T12:59:20;3.27;;;1.37;;
20456;SDS011;10387;51.102;6.848;2023-06-26T13:01:50;3.70;;;1.60;;
20456;SDS011;10387;51.102;6.848;2023-06-26T13:04:16;6.07;;;1.60;;
20456;SDS011;10387;51.102;6.848;2023-06-26T13:06:42;3.00;;;1.70;;
20456;SDS011;10387;51.102;6.848;2023-06-26T13:09:08;2.97;;;1.60;;
20456;SDS011;10387;51.102;6.848;2023-06-26T13:11:35;2.90;;;1.67;;
20456;SDS011;10387;51.102;6.848;2023-06-26T13:14:02;2.13;;;1.30;;
20456;SDS011;10387;51.102;6.848;2023-06-26T13:16:28;3.63;;;1.77;;
20456;SDS011;10387;51.102;6.848;2023-06-26T13:18:58;4.47;;;2.03;;
20456;SDS011;10387;51.102;6.848;2023-06-26T13:21:34;5.50;;;1.73;;
20456;SDS011;10387;51.102;6.848;2023-06-26T13:24:04;3.70;;;1.83;;
20456;SDS011;10387;51.102;6.848;2023-06-26T13:26:31;3.77;;;1.80;;
20456;SDS011;10387;51.102;6.848;2023-06-26T13:28:58;2.43;;;1.40;;
20456;SDS011;10387;51.102;6.848;2023-06-26T13:31:24;3.38;;;1.60;;
20456;SDS011;10387;51.102;6.848;2023-06-26T13:33:50;2.00;;;1.38;;
20456;SDS011;10387;51.102;6.848;2023-06-26T13:36:17;3.17;;;1.87;;
20456;SDS011;10387;51.102;6.848;2023-06-26T13:38:43;3.53;;;1.40;;
20456;SDS011;10387;51.102;6.848;2023-06-26T13:41:10;1.85;;;1.42;;
20456;SDS011;10387;51.102;6.848;2023-06-26T13:43:38;2.17;;;1.67;;
20456;SDS011;10387;51.102;6.848;2023-06-26T13:46:04;4.53;;;1.43;;
20456;SDS011;10387;51.102;6.848;2023-06-26T13:48:30;2.57;;;1.47;;
20456;SDS011;10387;51.102;6.848;2023-06-26T13:50:58;1.60;;;1.50;;
20456;SDS011;10387;51.102;6.848;2023-06-26T13:53:28;3.80;;;1.57;;
20456;SDS011;10387;51.102;6.848;2023-06-26T13:56:03;1.97;;;1.43;;
20456;SDS011;10387;51.102;6.848;2023-06-26T13:58:35;3.30;;;1.47;;
20456;SDS011;10387;51.102;6.848;2023-06-26T14:01:03;2.67;;;1.53;;
20456;SDS011;10387;51.102;6.848;2023-06-26T14:03:29;3.53;;;1.63;;
20456;SDS011;10387;51.102;6.848;2023-06-26T14:05:55;3.50;;;1.53;;
20456;SDS011;10387;51.102;6.848;2023-06-26T14:08:22;2.60;;;1.40;;
20456;SDS011;10387;51.102;6.848;2023-06-26T14:10:48;2.87;;;1.70;;
20456;SDS011;10387;51.102;6.848;2023-06-26T14:13:15;2.10;;;1.53;;
20456;SDS011;10387;51.102;6.848;2023-06-26T14:15:41;2.87;;;1.53;;
20456;SDS011;10387;51.102;6.848;2023-06-26T14:18:07;2.70;;;2.00;;
20456;SDS011;10387;51.102;6.848;2023-06-26T14:20:34;3.73;;;1.73;;
20456;SDS011;10387;51.102;6.848;2023-06-26T14:23:01;2.80;;;1.67;;
20456;SDS011;10387;51.102;6.848;2023-06-26T14:25:27;2.93;;;1.80;;
20456;SDS011;10387;51.102;6.848;2023-06-26T14:27:57;3.20;;;1.60;;
20456;SDS011;10387;51.102;6.848;2023-06-26T14:30:23;5.13;;;1.80;;
20456;SDS011;10387;51.102;6.848;2023-06-26T14:32:49;3.03;;;1.87;;
20456;SDS011;10387;51.102;6.848;2023-06-26T14:35:16;3.03;;;1.50;;
20456;SDS011;10387;51.102;6.848;2023-06-26T14:37:43;2.20;;;1.80;;
20456;SDS011;10387;51.102;6.848;2023-06-26T14:40:10;3.57;;;1.53;;
20456;SDS011;10387;51.102;6.848;2023-06-26T14:42:37;3.10;;;1.70;;
20456;SDS011;10387;51.102;6.848;2023-06-26T14:45:03;2.73;;;1.43;;
20456;SDS011;10387;51.102;6.848;2023-06-26T14:47:29;6.37;;;1.70;;
20456;SDS011;10387;51.102;6.848;2023-06-26T14:49:55;2.73;;;1.63;;
20456;SDS011;10387;51.102;6.848;2023-06-26T14:52:21;2.10;;;1.70;;